createdAt,value
2022-12-25T00:01:15.600Z,10.30
2022-12-25T00:03:42.901Z,10.30
2022-12-25T00:06:09.865Z,9.63
2022-12-25T00:08:38.648Z,10.47
2022-12-25T00:11:08.816Z,10.47
2022-12-25T00:13:35.850Z,9.80
2022-12-25T00:16:06.791Z,10.03
2022-12-25T00:18:35.109Z,10.63
2022-12-25T00:21:05.088Z,11.60
2022-12-25T00:23:33.639Z,9.93
2022-12-25T00:26:05.157Z,10.13
2022-12-25T00:28:32.109Z,11.27
2022-12-25T00:30:59.041Z,11.83
2022-12-25T00:33:26.292Z,11.13
2022-12-25T00:36:01.989Z,12.00
2022-12-25T00:38:28.935Z,11.23
2022-12-25T00:40:56.317Z,11.23
2022-12-25T00:43:24.001Z,11.33
2022-12-25T00:45:57.174Z,11.67
2022-12-25T00:48:24.940Z,11.17
2022-12-25T00:50:54.775Z,11.57
2022-12-25T00:53:24.545Z,10.80
2022-12-25T00:55:53.239Z,11.23
2022-12-25T00:58:20.201Z,13.03
2022-12-25T01:00:48.921Z,11.00
2022-12-25T01:03:17.111Z,11.93
2022-12-25T01:05:53.547Z,12.17
2022-12-25T01:08:20.754Z,12.70
2022-12-25T01:10:56.069Z,12.07
2022-12-25T01:13:23.333Z,12.00
2022-12-25T01:15:52.106Z,12.43
2022-12-25T01:18:19.672Z,11.60
2022-12-25T01:20:47.395Z,13.70
2022-12-25T01:23:14.580Z,12.40
2022-12-25T01:25:41.806Z,12.03
2022-12-25T01:28:10.089Z,11.73
2022-12-25T01:30:37.033Z,11.63
2022-12-25T01:33:04.171Z,12.63
2022-12-25T01:35:31.090Z,12.60
2022-12-25T01:37:58.013Z,11.70
2022-12-25T01:40:24.945Z,12.87
2022-12-25T01:42:51.880Z,11.90
2022-12-25T01:45:41.943Z,11.63
2022-12-25T01:48:16.004Z,10.77
2022-12-25T01:50:49.885Z,12.77
2022-12-25T01:53:17.169Z,11.23
2022-12-25T01:55:48.921Z,11.90
2022-12-25T01:58:17.999Z,11.80
2022-12-25T02:00:46.724Z,11.87
2022-12-25T02:03:14.139Z,10.60
2022-12-25T02:05:41.185Z,10.43
2022-12-25T02:08:11.453Z,11.77
2022-12-25T02:10:39.124Z,11.97
2022-12-25T02:13:07.520Z,10.73
2022-12-25T02:15:46.811Z,11.30
2022-12-25T02:18:30.329Z,12.33
2022-12-25T02:21:13.390Z,10.90
2022-12-25T02:24:29.606Z,10.53
2022-12-25T02:27:11.044Z,10.40
2022-12-25T02:29:52.884Z,9.67
2022-12-25T02:32:30.923Z,10.70
2022-12-25T02:35:05.678Z,10.53
2022-12-25T02:37:42.483Z,12.07
2022-12-25T02:40:16.791Z,10.63
2022-12-25T02:43:09.669Z,11.70
2022-12-25T02:46:06.746Z,10.90
2022-12-25T02:48:59.436Z,12.40
2022-12-25T02:51:51.426Z,10.77
2022-12-25T02:54:47.270Z,11.50
2022-12-25T02:57:37.136Z,10.80
2022-12-25T03:00:27.674Z,11.60
2022-12-25T03:03:18.027Z,11.63
2022-12-25T03:06:05.779Z,11.67
2022-12-25T03:08:39.694Z,12.13
2022-12-25T03:11:29.889Z,11.57
2022-12-25T03:14:21.593Z,12.70
2022-12-25T03:16:53.763Z,12.07
2022-12-25T03:20:04.021Z,11.87
2022-12-25T03:22:51.447Z,13.03
2022-12-25T03:25:38.329Z,12.27
2022-12-25T03:28:06.385Z,12.63
2022-12-25T03:31:03.036Z,12.27
2022-12-25T03:34:03.330Z,12.00
2022-12-25T03:36:46.091Z,12.20
2022-12-25T03:39:43.404Z,12.10
2022-12-25T03:42:32.914Z,13.00
2022-12-25T03:45:27.623Z,12.20
2022-12-25T03:48:15.593Z,11.67
2022-12-25T03:51:07.722Z,12.87
2022-12-25T03:54:01.680Z,11.23
2022-12-25T03:56:50.501Z,12.20
2022-12-25T03:59:38.953Z,10.27
2022-12-25T04:02:24.655Z,10.43
2022-12-25T04:05:10.435Z,12.50
2022-12-25T04:07:55.884Z,11.70
2022-12-25T04:10:43.129Z,11.60
2022-12-25T04:13:28.833Z,11.47
2022-12-25T04:16:14.818Z,9.97
2022-12-25T04:19:00.091Z,12.03
2022-12-25T04:21:46.048Z,11.40
2022-12-25T04:24:31.417Z,10.80
2022-12-25T04:27:18.392Z,11.17
2022-12-25T04:30:03.859Z,10.27
2022-12-25T04:32:49.624Z,11.53
2022-12-25T04:35:34.934Z,10.13
2022-12-25T04:38:01.957Z,10.83
2022-12-25T04:40:28.904Z,10.23
2022-12-25T04:42:57.088Z,10.77
2022-12-25T04:45:24.018Z,11.20
2022-12-25T04:47:50.911Z,11.50
2022-12-25T04:50:17.919Z,10.23
2022-12-25T04:52:44.851Z,11.17
2022-12-25T04:55:12.051Z,10.70
2022-12-25T04:57:39.720Z,11.47
2022-12-25T05:00:09.812Z,10.77
2022-12-25T05:02:36.871Z,10.40
2022-12-25T05:05:04.600Z,9.87
2022-12-25T05:07:32.635Z,10.13
2022-12-25T05:09:59.508Z,10.80
2022-12-25T05:12:26.388Z,11.30
2022-12-25T05:14:53.274Z,10.07
2022-12-25T05:17:21.434Z,11.07
2022-12-25T05:19:48.274Z,9.60
2022-12-25T05:22:15.124Z,10.43
2022-12-25T05:24:42.059Z,10.17
2022-12-25T05:27:08.987Z,9.70
2022-12-25T05:29:35.849Z,10.77
2022-12-25T05:32:02.877Z,9.97
2022-12-25T05:34:31.157Z,10.30
2022-12-25T05:36:58.177Z,10.00
2022-12-25T05:39:25.074Z,9.37
2022-12-25T05:41:51.916Z,8.87
2022-12-25T05:44:18.761Z,9.23
2022-12-25T05:46:45.663Z,9.40
2022-12-25T05:49:12.855Z,9.50
2022-12-25T05:51:41.241Z,8.90
2022-12-25T05:54:08.254Z,9.17
2022-12-25T05:56:35.198Z,9.20
2022-12-25T05:59:02.048Z,9.17
2022-12-25T06:01:29.338Z,9.17
2022-12-25T06:03:57.481Z,9.17
2022-12-25T06:06:25.984Z,8.60
2022-12-25T06:08:55.686Z,9.43
2022-12-25T06:11:22.733Z,9.57
2022-12-25T06:13:50.683Z,9.13
2022-12-25T06:16:18.439Z,8.47
2022-12-25T06:18:48.653Z,8.43
2022-12-25T06:21:16.269Z,7.97
2022-12-25T06:23:43.897Z,8.27
2022-12-25T06:26:15.516Z,8.23
2022-12-25T06:28:42.615Z,7.27
2022-12-25T06:31:12.465Z,8.07
2022-12-25T06:33:39.522Z,7.73
2022-12-25T06:36:09.369Z,8.37
2022-12-25T06:38:36.410Z,8.47
2022-12-25T06:41:05.548Z,8.07
2022-12-25T06:43:34.102Z,7.87
2022-12-25T06:46:03.760Z,7.73
2022-12-25T06:48:32.138Z,7.17
2022-12-25T06:50:59.215Z,7.60
2022-12-25T06:53:26.399Z,7.33
2022-12-25T06:55:53.279Z,7.27
2022-12-25T06:58:20.351Z,7.30
2022-12-25T07:00:48.553Z,7.43
2022-12-25T07:03:21.140Z,8.33
2022-12-25T07:05:48.160Z,7.57
2022-12-25T07:08:15.099Z,7.27
2022-12-25T07:10:42.012Z,7.20
2022-12-25T07:13:08.876Z,7.97
2022-12-25T07:15:35.819Z,7.87
2022-12-25T07:18:04.410Z,6.83
2022-12-25T07:20:31.474Z,6.37
2022-12-25T07:22:58.358Z,6.87
2022-12-25T07:25:25.179Z,6.80
2022-12-25T07:27:52.058Z,6.80
2022-12-25T07:30:19.124Z,6.10
2022-12-25T07:32:50.148Z,6.37
2022-12-25T07:35:18.627Z,6.27
2022-12-25T07:37:45.573Z,6.20
2022-12-25T07:40:13.231Z,5.97
2022-12-25T07:42:41.166Z,6.20
2022-12-25T07:45:09.275Z,6.53
2022-12-25T07:47:36.147Z,6.10
2022-12-25T07:50:03.570Z,6.03
2022-12-25T07:52:32.765Z,7.20
2022-12-25T07:55:02.242Z,6.57
2022-12-25T07:57:29.783Z,6.77
2022-12-25T07:59:56.886Z,5.70
2022-12-25T08:02:28.477Z,6.63
2022-12-25T08:04:55.769Z,6.10
2022-12-25T08:07:23.375Z,7.33
2022-12-25T08:09:51.560Z,6.47
2022-12-25T08:12:18.446Z,6.33
2022-12-25T08:14:45.319Z,6.00
2022-12-25T08:17:12.319Z,6.10
2022-12-25T08:19:39.392Z,6.30
2022-12-25T08:22:06.541Z,6.47
2022-12-25T08:24:33.431Z,6.07
2022-12-25T08:27:01.735Z,6.87
2022-12-25T08:29:28.918Z,6.07
2022-12-25T08:31:55.949Z,6.03
2022-12-25T08:34:23.199Z,5.97
2022-12-25T08:36:50.107Z,5.50
2022-12-25T08:39:17.224Z,6.60
2022-12-25T08:41:44.144Z,7.03
2022-12-25T08:44:14.539Z,6.07
2022-12-25T08:46:41.432Z,5.37
2022-12-25T08:49:08.511Z,5.40
2022-12-25T08:51:37.111Z,5.80
2022-12-25T08:54:04.289Z,6.30
2022-12-25T08:56:31.277Z,5.70
2022-12-25T08:58:58.206Z,5.93
2022-12-25T09:01:26.496Z,5.90
2022-12-25T09:03:53.449Z,5.20
2022-12-25T09:06:20.348Z,6.10
2022-12-25T09:08:49.593Z,5.77
2022-12-25T09:11:19.253Z,6.03
2022-12-25T09:13:46.954Z,5.60
2022-12-25T09:16:17.938Z,6.50
2022-12-25T09:18:46.347Z,5.27
2022-12-25T09:21:15.943Z,6.93
2022-12-25T09:23:42.976Z,6.23
2022-12-25T09:26:13.550Z,5.73
2022-12-25T09:28:46.572Z,6.17
2022-12-25T09:31:17.489Z,5.77
2022-12-25T09:33:45.832Z,6.07
2022-12-25T09:36:12.812Z,5.83
2022-12-25T09:38:39.807Z,6.30
2022-12-25T09:41:16.967Z,6.13
2022-12-25T09:43:51.199Z,5.53
2022-12-25T09:46:23.531Z,6.67
2022-12-25T09:49:04.609Z,5.47
2022-12-25T09:51:36.776Z,5.77
2022-12-25T09:54:13.013Z,5.00
2022-12-25T09:56:39.919Z,5.83
2022-12-25T09:59:20.538Z,6.60
2022-12-25T10:02:15.620Z,5.93
2022-12-25T10:05:05.449Z,5.80
2022-12-25T10:07:43.818Z,6.10
2022-12-25T10:10:40.384Z,5.40
2022-12-25T10:13:21.028Z,5.20
2022-12-25T10:16:04.099Z,6.17
2022-12-25T10:19:19.333Z,5.90
2022-12-25T10:21:51.882Z,5.83
2022-12-25T10:24:33.781Z,5.63
2022-12-25T10:27:11.306Z,5.73
2022-12-25T10:29:39.630Z,6.10
2022-12-25T10:32:06.490Z,6.00
2022-12-25T10:34:33.646Z,5.60
2022-12-25T10:37:02.222Z,6.50
2022-12-25T10:39:29.197Z,5.33
2022-12-25T10:42:27.372Z,6.60
2022-12-25T10:44:57.658Z,5.63
2022-12-25T10:47:28.427Z,6.33
2022-12-25T10:49:56.647Z,5.43
2022-12-25T10:52:28.053Z,6.27
2022-12-25T10:54:55.925Z,5.70
2022-12-25T10:57:26.265Z,5.33
2022-12-25T10:59:56.444Z,6.60
2022-12-25T11:02:27.873Z,6.37
2022-12-25T11:05:03.878Z,5.67
2022-12-25T11:07:34.834Z,5.93
2022-12-25T11:10:15.070Z,6.07
2022-12-25T11:12:45.848Z,5.03
2022-12-25T11:15:45.917Z,5.27
2022-12-25T11:18:22.022Z,6.60
2022-12-25T11:20:51.001Z,5.73
2022-12-25T11:23:21.849Z,6.30
2022-12-25T11:25:56.173Z,6.80
2022-12-25T11:28:24.549Z,5.50
2022-12-25T11:30:59.360Z,6.80
2022-12-25T11:33:35.413Z,6.10
2022-12-25T11:36:12.594Z,5.23
2022-12-25T11:38:40.809Z,6.10
2022-12-25T11:41:12.534Z,6.03
2022-12-25T11:43:46.688Z,5.73
2022-12-25T11:46:20.629Z,5.53
2022-12-25T11:48:56.600Z,5.50
2022-12-25T11:51:29.991Z,5.53
2022-12-25T11:54:05.508Z,5.80
2022-12-25T11:56:33.090Z,5.47
2022-12-25T11:59:11.517Z,5.47
2022-12-25T12:01:47.011Z,6.20
2022-12-25T12:04:27.429Z,5.93
2022-12-25T12:07:05.699Z,6.17
2022-12-25T12:09:47.351Z,5.27
2022-12-25T12:12:22.029Z,5.00
2022-12-25T12:15:01.322Z,5.67
2022-12-25T12:17:28.512Z,6.37
2022-12-25T12:19:55.490Z,5.93
2022-12-25T12:22:25.969Z,5.73
2022-12-25T12:25:04.476Z,6.07
2022-12-25T12:27:36.518Z,6.37
2022-12-25T12:30:06.028Z,5.57
2022-12-25T12:32:41.373Z,5.70
2022-12-25T12:35:18.182Z,5.00
2022-12-25T12:37:51.016Z,6.20
2022-12-25T12:40:29.165Z,6.30
2022-12-25T12:42:56.410Z,6.50
2022-12-25T12:45:29.696Z,6.03
2022-12-25T12:47:57.634Z,6.90
2022-12-25T12:50:34.787Z,6.63
2022-12-25T12:53:26.867Z,6.77
2022-12-25T12:55:55.550Z,6.63
2022-12-25T12:58:33.055Z,6.33
2022-12-25T13:01:17.074Z,6.00
2022-12-25T13:04:06.537Z,6.23
2022-12-25T13:06:40.948Z,5.50
2022-12-25T13:09:35.461Z,6.10
2022-12-25T13:12:08.137Z,7.00
2022-12-25T13:14:37.848Z,6.53
2022-12-25T13:17:08.636Z,6.93
2022-12-25T13:19:37.842Z,6.53
2022-12-25T13:22:06.587Z,6.47
2022-12-25T13:24:36.407Z,7.03
2022-12-25T13:27:22.809Z,5.97
2022-12-25T13:29:49.911Z,6.63
2022-12-25T13:32:23.957Z,7.07
2022-12-25T13:34:52.621Z,6.87
2022-12-25T13:37:23.663Z,6.97
2022-12-25T13:39:54.547Z,6.80
2022-12-25T13:42:26.352Z,6.97
2022-12-25T13:44:57.479Z,6.80
2022-12-25T13:47:29.682Z,6.57
2022-12-25T13:49:58.886Z,6.90
2022-12-25T13:52:34.496Z,6.50
2022-12-25T13:55:04.606Z,7.33
2022-12-25T13:57:36.730Z,7.40
2022-12-25T14:00:16.124Z,7.60
2022-12-25T14:02:43.205Z,7.30
2022-12-25T14:05:28.543Z,7.77
2022-12-25T14:07:58.278Z,7.10
2022-12-25T14:10:29.338Z,9.20
2022-12-25T14:13:03.429Z,7.30
2022-12-25T14:15:33.143Z,7.17
2022-12-25T14:18:00.646Z,6.63
2022-12-25T14:20:30.681Z,6.40
2022-12-25T14:23:00.599Z,6.63
2022-12-25T14:25:33.234Z,6.50
2022-12-25T14:28:08.301Z,6.20
2022-12-25T14:30:36.416Z,6.07
2022-12-25T14:33:03.676Z,6.93
2022-12-25T14:35:31.024Z,6.33
2022-12-25T14:38:00.347Z,6.13
2022-12-25T14:40:30.962Z,6.50
2022-12-25T14:43:01.829Z,6.90
2022-12-25T14:45:32.347Z,7.23
2022-12-25T14:48:04.087Z,7.90
2022-12-25T14:50:37.294Z,7.23
2022-12-25T14:53:16.510Z,7.53
2022-12-25T14:55:49.023Z,7.40
2022-12-25T14:58:25.187Z,7.23
2022-12-25T15:00:56.459Z,8.07
2022-12-25T15:03:28.602Z,8.60
2022-12-25T15:06:01.307Z,7.53
2022-12-25T15:08:32.333Z,7.67
2022-12-25T15:11:02.128Z,7.90
2022-12-25T15:13:32.205Z,8.17
2022-12-25T15:16:06.254Z,7.87
2022-12-25T15:18:40.129Z,7.30
2022-12-25T15:21:15.546Z,8.13
2022-12-25T15:23:42.529Z,7.47
2022-12-25T15:26:13.095Z,7.30
2022-12-25T15:28:41.739Z,8.33
2022-12-25T15:31:21.957Z,7.60
2022-12-25T15:33:49.622Z,9.30
2022-12-25T15:36:16.583Z,9.30
2022-12-25T15:38:43.778Z,8.87
2022-12-25T15:41:34.215Z,9.43
2022-12-25T15:44:03.440Z,6.83
2022-12-25T15:46:30.877Z,9.00
2022-12-25T15:48:57.864Z,9.30
2022-12-25T15:51:24.735Z,9.30
2022-12-25T15:53:52.046Z,8.97
2022-12-25T15:56:19.562Z,9.43
2022-12-25T15:58:46.445Z,9.87
2022-12-25T16:01:16.402Z,8.30
2022-12-25T16:03:44.118Z,8.87
2022-12-25T16:06:13.315Z,8.60
2022-12-25T16:08:40.850Z,8.00
2022-12-25T16:11:08.973Z,9.27
2022-12-25T16:13:36.421Z,8.80
2022-12-25T16:16:04.980Z,9.23
2022-12-25T16:18:33.471Z,9.20
2022-12-25T16:21:00.456Z,9.00
2022-12-25T16:23:27.430Z,9.57
2022-12-25T16:25:54.345Z,9.23
2022-12-25T16:28:21.222Z,8.93
2022-12-25T16:30:48.342Z,9.53
2022-12-25T16:33:15.461Z,8.43
2022-12-25T16:35:44.047Z,8.83
2022-12-25T16:38:11.657Z,6.90
2022-12-25T16:40:38.748Z,7.23
2022-12-25T16:43:05.711Z,7.10
2022-12-25T16:45:38.310Z,6.90
2022-12-25T16:48:05.938Z,7.87
2022-12-25T16:50:34.093Z,7.03
2022-12-25T16:53:02.431Z,7.47
2022-12-25T16:55:30.373Z,6.80
2022-12-25T16:57:57.559Z,7.80
2022-12-25T17:00:24.879Z,9.17
2022-12-25T17:02:52.457Z,7.83
2022-12-25T17:05:19.493Z,9.50
2022-12-25T17:07:46.943Z,8.67
2022-12-25T17:10:15.159Z,7.80
2022-12-25T17:12:42.403Z,9.13
2022-12-25T17:15:10.058Z,7.70
2022-12-25T17:17:36.951Z,8.47
2022-12-25T17:20:05.422Z,7.87
2022-12-25T17:22:32.310Z,8.07
2022-12-25T17:24:59.201Z,9.17
2022-12-25T17:27:27.549Z,8.90
2022-12-25T17:29:54.905Z,8.17
2022-12-25T17:32:21.807Z,9.40
2022-12-25T17:34:48.822Z,8.57
2022-12-25T17:37:15.667Z,8.93
2022-12-25T17:39:42.582Z,8.23
2022-12-25T17:42:09.479Z,9.23
2022-12-25T17:44:37.656Z,9.83
2022-12-25T17:47:04.736Z,10.57
2022-12-25T17:49:31.706Z,10.83
2022-12-25T17:51:58.577Z,9.27
2022-12-25T17:54:25.445Z,9.60
2022-12-25T17:56:52.325Z,8.87
2022-12-25T17:59:19.336Z,8.20
2022-12-25T18:01:48.927Z,8.93
2022-12-25T18:04:16.007Z,9.00
2022-12-25T18:06:43.038Z,9.33
2022-12-25T18:09:11.520Z,9.17
2022-12-25T18:11:41.128Z,8.17
2022-12-25T18:14:13.231Z,9.07
2022-12-25T18:16:43.773Z,8.47
2022-12-25T18:19:15.043Z,9.30
2022-12-25T18:21:42.009Z,11.00
2022-12-25T18:24:09.797Z,9.93
2022-12-25T18:26:37.002Z,9.90
2022-12-25T18:29:04.295Z,9.60
2022-12-25T18:31:31.384Z,8.83
2022-12-25T18:33:59.781Z,9.83
2022-12-25T18:36:30.062Z,8.90
2022-12-25T18:38:58.158Z,8.57
2022-12-25T18:41:27.898Z,8.20
2022-12-25T18:43:55.802Z,8.67
2022-12-25T18:46:25.269Z,8.00
2022-12-25T18:48:54.413Z,8.80
2022-12-25T18:51:21.437Z,7.53
2022-12-25T18:53:49.680Z,8.23
2022-12-25T18:56:18.323Z,8.03
2022-12-25T18:58:46.484Z,8.13
2022-12-25T19:01:17.111Z,8.17
2022-12-25T19:03:45.880Z,10.60
2022-12-25T19:06:18.697Z,10.23
2022-12-25T19:08:46.501Z,7.93
2022-12-25T19:11:15.625Z,8.87
2022-12-25T19:13:42.875Z,8.13
2022-12-25T19:16:10.323Z,7.70
2022-12-25T19:18:37.519Z,6.63
2022-12-25T19:21:08.370Z,7.93
2022-12-25T19:23:37.653Z,8.33
2022-12-25T19:26:05.872Z,9.27
2022-12-25T19:28:34.826Z,7.97
2022-12-25T19:31:03.475Z,9.00
2022-12-25T19:33:31.872Z,8.70
2022-12-25T19:36:00.578Z,8.33
2022-12-25T19:38:27.906Z,9.07
2022-12-25T19:41:01.082Z,9.30
2022-12-25T19:43:29.445Z,9.53
2022-12-25T19:45:58.369Z,8.00
2022-12-25T19:48:25.786Z,8.50
2022-12-25T19:50:52.854Z,8.30
2022-12-25T19:53:23.396Z,8.03
2022-12-25T19:55:52.178Z,7.60
2022-12-25T19:58:19.190Z,7.17
2022-12-25T20:00:58.346Z,8.20
2022-12-25T20:03:25.854Z,8.83
2022-12-25T20:05:53.006Z,8.13
2022-12-25T20:08:19.965Z,7.77
2022-12-25T20:10:46.858Z,7.30
2022-12-25T20:13:13.767Z,7.83
2022-12-25T20:15:41.116Z,8.70
2022-12-25T20:18:09.338Z,7.20
2022-12-25T20:20:36.309Z,8.03
2022-12-25T20:23:03.545Z,7.63
2022-12-25T20:25:30.420Z,6.73
2022-12-25T20:27:57.827Z,8.30
2022-12-25T20:30:24.862Z,8.50
2022-12-25T20:32:52.425Z,7.80
2022-12-25T20:35:20.685Z,7.73
2022-12-25T20:37:47.569Z,8.60
2022-12-25T20:40:14.605Z,8.03
2022-12-25T20:42:43.123Z,7.63
2022-12-25T20:45:12.425Z,6.93
2022-12-25T20:47:39.312Z,6.67
2022-12-25T20:50:07.981Z,6.60
2022-12-25T20:52:36.208Z,7.23
2022-12-25T20:55:03.525Z,6.77
2022-12-25T20:57:30.572Z,7.83
2022-12-25T20:59:57.537Z,9.70
2022-12-25T21:02:35.423Z,10.17
2022-12-25T21:05:03.148Z,11.73
2022-12-25T21:07:30.159Z,12.43
2022-12-25T21:09:59.251Z,11.57
2022-12-25T21:12:26.308Z,11.33
2022-12-25T21:14:53.185Z,11.27
2022-12-25T21:17:20.175Z,13.80
2022-12-25T21:19:47.157Z,11.13
2022-12-25T21:22:14.303Z,12.63
2022-12-25T21:24:41.156Z,11.27
2022-12-25T21:27:09.453Z,11.13
2022-12-25T21:29:36.598Z,11.47
2022-12-25T21:32:22.174Z,10.77
2022-12-25T21:34:49.024Z,9.80
2022-12-25T21:37:16.021Z,13.33
2022-12-25T21:39:42.908Z,10.73
2022-12-25T21:42:11.272Z,13.90
2022-12-25T21:44:38.301Z,9.93
2022-12-25T21:47:05.241Z,9.67
2022-12-25T21:49:50.723Z,11.43
2022-12-25T21:52:18.486Z,9.77
2022-12-25T21:54:45.568Z,10.83
2022-12-25T21:57:13.934Z,9.97
2022-12-25T21:59:40.796Z,10.77
2022-12-25T22:02:11.303Z,10.33
2022-12-25T22:04:38.941Z,9.17
2022-12-25T22:07:17.834Z,7.73
2022-12-25T22:09:46.515Z,7.57
2022-12-25T22:12:34.962Z,7.77
2022-12-25T22:15:05.950Z,7.53
2022-12-25T22:17:54.821Z,9.57
2022-12-25T22:20:25.294Z,8.60
2022-12-25T22:22:52.992Z,8.97
2022-12-25T22:25:20.596Z,9.00
2022-12-25T22:27:49.517Z,9.33
2022-12-25T22:30:19.965Z,9.30
2022-12-25T22:32:47.459Z,9.17
2022-12-25T22:35:14.902Z,10.33
2022-12-25T22:37:43.381Z,10.00
2022-12-25T22:40:14.418Z,9.27
2022-12-25T22:42:42.046Z,10.23
2022-12-25T22:45:12.232Z,10.30
2022-12-25T22:47:39.285Z,9.77
2022-12-25T22:50:07.188Z,11.30
2022-12-25T22:52:34.137Z,9.80
2022-12-25T22:55:02.277Z,10.23
2022-12-25T22:57:29.300Z,10.10
2022-12-25T22:59:56.163Z,10.07
2022-12-25T23:02:24.596Z,11.37
2022-12-25T23:04:51.555Z,11.50
2022-12-25T23:07:18.813Z,11.73
2022-12-25T23:09:45.857Z,11.80
2022-12-25T23:12:32.856Z,11.33
2022-12-25T23:15:00.008Z,12.73
2022-12-25T23:17:46.822Z,11.83
2022-12-25T23:20:33.393Z,12.70
2022-12-25T23:23:19.176Z,12.67
2022-12-25T23:26:04.372Z,12.90
2022-12-25T23:28:50.192Z,12.93
2022-12-25T23:31:18.032Z,12.23
2022-12-25T23:33:46.296Z,14.00
2022-12-25T23:36:13.233Z,12.60
2022-12-25T23:38:40.086Z,12.70
2022-12-25T23:41:07.877Z,14.10
2022-12-25T23:43:34.757Z,15.07
2022-12-25T23:46:01.700Z,16.40
2022-12-25T23:48:28.648Z,15.67
2022-12-25T23:50:56.948Z,15.27
2022-12-25T23:53:24.991Z,14.00
2022-12-25T23:55:55.868Z,14.97
2022-12-25T23:58:23.018Z,14.07
